Time;durP1;ratioP1;P1;durP2;ratioP2;P2;SDS_P1;SDS_P2;PMS_P1;PMS_P2;Temp;Humidity;BMP_temperature;BMP_pressure;BME280_temperature;BME280_humidity;BME280_pressure;Samples;Min_cycle;Max_cycle;Signal;HPM_P1;HPM_P2
2022/09/09 00:02:34;;;;;;;2.72;0.63;;;16.00;69.40;;;;;;4970858;28;20967;-74
2022/09/09 00:05:01;;;;;;;3.25;0.60;;;15.90;69.50;;;;;;4960621;28;20031;-74
2022/09/09 00:07:32;;;;;;;2.30;0.40;;;15.90;69.40;;;;;;4968765;28;20045;-74
2022/09/09 00:10:00;;;;;;;;;;;15.90;69.60;;;;;;4983940;28;20044;-74
2022/09/09 00:12:43;;;;;;;1.63;0.52;;;15.90;69.70;;;;;;4955309;28;19928;-74
2022/09/09 00:15:13;;;;;;;2.17;1.27;;;15.90;69.60;;;;;;4944537;28;20683;-74
2022/09/09 00:17:42;;;;;;;1.35;0.50;;;15.90;69.40;;;;;;4971866;28;20683;-74
2022/09/09 00:20:33;;;;;;;5.63;0.52;;;15.90;69.50;;;;;;4959344;28;20033;-75
2022/09/09 00:23:14;;;;;;;4.28;0.60;;;15.90;69.90;;;;;;4970282;28;20061;-75
2022/09/09 00:25:49;;;;;;;1.20;0.50;;;15.90;69.80;;;;;;4957374;28;20039;-74
2022/09/09 00:28:23;;;;;;;1.85;0.60;;;15.90;69.90;;;;;;4948610;28;20054;-74
2022/09/09 00:30:48;;;;;;;1.42;0.70;;;15.90;70.00;;;;;;4961168;28;20101;-75
2022/09/09 00:33:24;;;;;;;1.42;0.60;;;15.90;69.90;;;;;;4984953;28;20046;-75
2022/09/09 00:35:58;;;;;;;2.15;1.15;;;15.90;70.70;;;;;;4986762;28;20748;-75
2022/09/09 00:38:35;;;;;;;0.82;0.50;;;15.90;70.30;;;;;;4969946;28;20043;-75
2022/09/09 00:41:17;;;;;;;1.80;0.47;;;15.90;70.20;;;;;;4986032;28;20037;-74
2022/09/09 00:43:43;;;;;;;1.98;0.40;;;15.90;70.10;;;;;;4988710;28;20065;-74
2022/09/09 00:46:18;;;;;;;2.10;0.52;;;15.90;70.00;;;;;;4960103;28;20324;-74
2022/09/09 00:48:55;;;;;;;0.85;0.77;;;15.90;70.20;;;;;;4976809;28;20034;-75
2022/09/09 00:51:46;;;;;;;1.83;0.57;;;15.90;70.30;;;;;;4978901;28;20730;-75
2022/09/09 00:54:18;;;;;;;3.22;0.82;;;15.90;70.40;;;;;;4986187;28;20061;-74
2022/09/09 00:56:53;;;;;;;2.15;1.10;;;16.00;70.20;;;;;;4982838;28;20046;-74
2022/09/09 00:59:35;;;;;;;2.78;0.75;;;16.00;70.80;;;;;;4966608;28;20830;-74
2022/09/09 01:02:01;;;;;;;3.33;0.68;;;15.90;70.70;;;;;;4983125;28;20037;-74
2022/09/09 01:04:33;;;;;;;2.58;0.80;;;15.90;70.50;;;;;;4965633;28;20117;-74
2022/09/09 01:07:17;;;;;;;2.88;0.90;;;15.90;70.80;;;;;;4962405;28;20776;-75
2022/09/09 01:09:57;;;;;;;2.00;0.70;;;15.90;71.20;;;;;;4942785;28;20057;-75
2022/09/09 01:12:35;;;;;;;3.95;0.65;;;15.90;71.20;;;;;;4981883;28;20048;-74
2022/09/09 01:15:09;;;;;;;1.55;0.80;;;15.80;71.10;;;;;;4998663;28;20038;-76
2022/09/09 01:18:05;;;;;;;1.52;0.60;;;15.80;71.40;;;;;;4966744;28;20119;-74
2022/09/09 01:20:45;;;;;;;4.68;0.68;;;15.80;71.60;;;;;;4966478;28;20045;-75
2022/09/09 01:23:26;;;;;;;2.42;0.75;;;15.70;71.30;;;;;;4974833;28;20041;-75
2022/09/09 01:26:11;;;;;;;1.85;0.50;;;15.70;71.60;;;;;;4973042;28;20650;-75
2022/09/09 01:28:36;;;;;;;1.30;0.50;;;15.70;71.80;;;;;;4990084;28;20080;-75
2022/09/09 01:31:06;;;;;;;2.15;0.60;;;15.60;71.40;;;;;;4959836;28;20042;-75
2022/09/09 01:33:31;;;;;;;2.08;0.70;;;15.70;71.70;;;;;;4977360;28;20034;-75
2022/09/09 01:36:18;;;;;;;1.42;0.55;;;15.70;71.70;;;;;;5005012;28;20501;-74
2022/09/09 01:38:44;;;;;;;3.38;0.77;;;15.60;72.20;;;;;;4971470;28;20033;-76
2022/09/09 01:41:09;;;;;;;1.85;0.70;;;15.60;71.90;;;;;;5003729;28;20061;-75
2022/09/09 01:43:35;;;;;;;2.45;0.63;;;15.60;72.00;;;;;;4980958;28;20041;-74
2022/09/09 01:46:01;;;;;;;3.40;0.73;;;15.60;72.20;;;;;;4975955;28;20045;-74
2022/09/09 01:48:27;;;;;;;0.82;0.50;;;15.50;72.10;;;;;;4958437;28;20420;-76
2022/09/09 01:50:52;;;;;;;1.80;0.43;;;15.50;72.10;;;;;;4978029;28;20048;-75
2022/09/09 01:53:19;;;;;;;2.35;0.55;;;15.60;72.20;;;;;;4964422;28;20487;-74
2022/09/09 01:55:48;;;;;;;0.70;0.70;;;15.50;72.10;;;;;;4969937;28;20073;-75
2022/09/09 01:58:41;;;;;;;3.08;0.70;;;15.60;72.30;;;;;;4981553;28;20045;-75
2022/09/09 02:01:29;;;;;;;1.58;0.47;;;15.60;72.60;;;;;;5006164;28;20048;-76
2022/09/09 02:03:56;;;;;;;2.50;0.82;;;15.60;72.30;;;;;;4997798;28;20042;-75
2022/09/09 02:06:36;;;;;;;4.55;0.70;;;15.60;72.10;;;;;;4990429;28;20046;-75
2022/09/09 02:09:04;;;;;;;5.25;1.65;;;15.60;72.70;;;;;;4979733;28;20080;-74
2022/09/09 02:11:29;;;;;;;1.30;0.30;;;15.50;72.30;;;;;;4959397;28;20044;-76
2022/09/09 02:14:01;;;;;;;0.88;0.60;;;15.50;72.50;;;;;;4966405;28;20125;-75
2022/09/09 02:16:33;;;;;;;0.73;0.50;;;15.50;72.70;;;;;;4960428;28;20129;-74
2022/09/09 02:19:13;;;;;;;1.95;0.50;;;15.50;72.80;;;;;;4981896;28;20042;-74
2022/09/09 02:21:39;;;;;;;2.97;0.60;;;15.50;72.90;;;;;;4973724;28;20813;-73
2022/09/09 02:24:08;;;;;;;3.00;0.68;;;15.60;72.70;;;;;;4956551;28;20058;-75
2022/09/09 02:26:34;;;;;;;1.85;0.70;;;15.60;72.60;;;;;;4960635;28;20050;-74
2022/09/09 02:29:01;;;;;;;4.60;0.60;;;15.60;72.70;;;;;;4980705;28;20101;-75
2022/09/09 02:31:27;;;;;;;1.95;0.80;;;15.60;72.60;;;;;;4963074;28;20053;-75
2022/09/09 02:33:55;;;;;;;1.92;0.50;;;15.70;72.80;;;;;;4954149;28;20046;-75
2022/09/09 02:36:21;;;;;;;1.27;0.50;;;15.70;72.80;;;;;;4980062;28;20034;-74
2022/09/09 02:38:52;;;;;;;2.97;0.50;;;15.70;72.70;;;;;;4973174;28;20033;-74
2022/09/09 02:41:21;;;;;;;6.35;1.02;;;15.70;72.60;;;;;;4967691;28;20050;-74
2022/09/09 02:43:47;;;;;;;0.88;0.50;;;15.70;72.80;;;;;;4968218;28;20046;-75
2022/09/09 02:46:40;;;;;;;0.80;0.60;;;15.70;72.80;;;;;;4934234;28;20050;-74
2022/09/09 02:49:16;;;;;;;3.65;0.80;;;15.70;73.30;;;;;;4962272;28;20045;-75
2022/09/09 02:51:48;;;;;;;1.50;0.52;;;15.70;73.40;;;;;;4964861;28;20380;-75
2022/09/09 02:54:32;;;;;;;1.67;0.70;;;15.60;73.50;;;;;;4939017;28;20066;-75
2022/09/09 02:57:12;;;;;;;2.25;0.65;;;15.60;73.90;;;;;;4983097;28;20041;-75
2022/09/09 02:59:38;;;;;;;1.10;0.57;;;15.60;73.50;;;;;;4965639;28;20034;-76
2022/09/09 03:02:04;;;;;;;1.45;0.65;;;15.60;73.40;;;;;;4951437;28;20057;-75
2022/09/09 03:04:30;;;;;;;1.42;0.57;;;15.60;73.40;;;;;;4950281;28;20061;-76
2022/09/09 03:06:57;;;;;;;1.48;0.60;;;15.60;73.40;;;;;;4946918;28;20038;-74
2022/09/09 03:09:22;;;;;;;0.93;0.47;;;15.60;73.50;;;;;;4952376;28;20045;-74
2022/09/09 03:11:49;;;;;;;1.58;0.55;;;15.60;73.60;;;;;;4963212;28;20042;-73
2022/09/09 03:14:15;;;;;;;0.88;0.70;;;15.60;73.70;;;;;;4981873;28;20563;-74
2022/09/09 03:16:42;;;;;;;2.75;0.57;;;15.60;73.80;;;;;;4951301;28;20042;-75
2022/09/09 03:19:07;;;;;;;5.47;0.68;;;15.60;73.80;;;;;;4944281;28;20030;-73
2022/09/09 03:21:33;;;;;;;0.95;0.60;;;15.60;74.00;;;;;;4986515;28;20041;-75
2022/09/09 03:23:58;;;;;;;2.55;0.63;;;15.50;73.90;;;;;;4973934;28;20047;-74
2022/09/09 03:26:24;;;;;;;1.95;0.50;;;15.50;74.00;;;;;;5008741;28;20065;-74
2022/09/09 03:28:52;;;;;;;2.42;0.60;;;15.50;73.90;;;;;;4970277;28;20049;-76
2022/09/09 03:31:19;;;;;;;2.80;0.60;;;15.60;73.80;;;;;;4971628;28;20091;-74
2022/09/09 03:33:44;;;;;;;1.20;0.52;;;15.60;73.70;;;;;;4975501;28;20668;-75
2022/09/09 03:36:10;;;;;;;2.03;0.68;;;15.60;73.80;;;;;;4977940;28;20042;-74
2022/09/09 03:38:36;;;;;;;2.50;0.30;;;15.60;73.80;;;;;;4970824;28;20783;-75
2022/09/09 03:41:01;;;;;;;1.20;0.75;;;15.60;74.00;;;;;;4989214;28;20652;-74
2022/09/09 03:43:27;;;;;;;1.35;0.38;;;15.50;73.80;;;;;;4968900;28;20030;-76
2022/09/09 03:45:56;;;;;;;0.90;0.50;;;15.50;73.80;;;;;;4954919;28;20065;-74
2022/09/09 03:48:22;;;;;;;3.50;0.60;;;15.50;74.00;;;;;;4970466;28;20034;-74
2022/09/09 03:50:49;;;;;;;3.40;0.50;;;15.50;74.10;;;;;;4954647;28;20034;-73
2022/09/09 03:53:15;;;;;;;1.17;0.43;;;15.50;74.20;;;;;;4987045;28;20487;-74
2022/09/09 03:55:45;;;;;;;1.05;0.50;;;15.50;74.20;;;;;;4985769;28;20673;-74
2022/09/09 03:58:11;;;;;;;1.58;0.50;;;15.50;74.30;;;;;;4952529;28;20068;-74
2022/09/09 04:00:43;;;;;;;2.67;0.60;;;15.50;74.20;;;;;;4942002;28;20037;-74
2022/09/09 04:03:09;;;;;;;2.33;0.65;;;15.40;74.20;;;;;;4959325;28;20042;-74
2022/09/09 04:05:35;;;;;;;1.33;0.73;;;15.40;74.40;;;;;;4973072;28;20118;-73
2022/09/09 04:08:01;;;;;;;1.15;0.60;;;15.40;74.40;;;;;;4972882;28;20057;-73
2022/09/09 04:10:26;;;;;;;1.25;0.40;;;15.40;74.60;;;;;;4972585;28;20041;-73
2022/09/09 04:12:52;;;;;;;1.00;0.43;;;15.40;74.60;;;;;;4972017;28;20378;-73
2022/09/09 04:15:18;;;;;;;0.82;0.40;;;15.40;74.60;;;;;;4972190;28;20194;-74
2022/09/09 04:17:43;;;;;;;0.85;0.50;;;15.40;74.70;;;;;;4952532;28;20023;-74
2022/09/09 04:20:11;;;;;;;2.03;1.02;;;15.40;74.80;;;;;;4967209;28;20065;-74
2022/09/09 04:22:38;;;;;;;3.63;0.50;;;15.40;74.80;;;;;;4980247;28;20026;-73
2022/09/09 04:25:05;;;;;;;1.23;0.70;;;15.40;74.80;;;;;;4982135;28;20054;-75
2022/09/09 04:27:31;;;;;;;1.63;0.50;;;15.40;74.70;;;;;;4979999;28;20094;-74
2022/09/09 04:29:57;;;;;;;0.68;0.40;;;15.40;74.70;;;;;;4988577;28;20038;-73
2022/09/09 04:32:23;;;;;;;1.75;0.45;;;15.40;74.80;;;;;;4981113;28;20047;-73
2022/09/09 04:34:48;;;;;;;0.73;0.55;;;15.40;74.60;;;;;;4969417;28;20257;-74
2022/09/09 04:37:14;;;;;;;1.70;1.30;;;15.40;74.60;;;;;;4963875;28;20042;-75
2022/09/09 04:39:39;;;;;;;3.47;2.45;;;15.40;74.60;;;;;;4961636;28;20096;-74
2022/09/09 04:42:05;;;;;;;6.10;3.22;;;15.40;74.70;;;;;;4969173;28;20053;-74
2022/09/09 04:44:30;;;;;;;4.20;2.30;;;15.40;74.80;;;;;;4954449;28;20054;-75
2022/09/09 04:46:56;;;;;;;3.70;2.17;;;15.40;74.80;;;;;;4943256;28;20046;-74
2022/09/09 04:49:21;;;;;;;3.42;2.30;;;15.40;74.90;;;;;;4936688;28;20034;-74
2022/09/09 04:51:49;;;;;;;2.50;1.40;;;15.30;74.80;;;;;;4967661;28;20188;-74
2022/09/09 04:54:14;;;;;;;2.42;1.10;;;15.30;74.90;;;;;;4939719;28;20047;-73
2022/09/09 04:56:42;;;;;;;1.90;1.33;;;15.30;74.90;;;;;;4995494;28;20619;-73
2022/09/09 04:59:08;;;;;;;3.55;0.90;;;15.30;74.90;;;;;;4967067;28;20042;-73
2022/09/09 05:01:33;;;;;;;1.88;1.30;;;15.20;74.90;;;;;;4985500;28;20044;-74
2022/09/09 05:03:59;;;;;;;3.30;1.10;;;15.20;75.00;;;;;;4970929;28;20045;-74
2022/09/09 05:06:24;;;;;;;3.60;0.98;;;15.10;75.20;;;;;;4953945;28;20049;-74
2022/09/09 05:08:50;;;;;;;3.08;0.90;;;15.00;75.40;;;;;;4979211;28;20033;-74
2022/09/09 05:11:24;;;;;;;1.40;0.80;;;15.00;75.50;;;;;;4980056;28;20062;-74
2022/09/09 05:13:50;;;;;;;2.47;0.80;;;14.90;75.70;;;;;;4972435;28;20127;-74
2022/09/09 05:16:15;;;;;;;0.95;0.50;;;14.90;75.70;;;;;;4958106;28;20041;-75
2022/09/09 05:18:44;;;;;;;1.52;0.70;;;14.80;75.90;;;;;;4952540;28;20044;-74
2022/09/09 05:21:13;;;;;;;3.05;0.50;;;14.80;76.00;;;;;;4965005;28;20069;-74
2022/09/09 05:23:38;;;;;;;0.57;0.50;;;14.80;76.00;;;;;;4974542;28;20045;-74
2022/09/09 05:26:04;;;;;;;2.10;0.77;;;14.80;76.00;;;;;;4955290;28;20046;-74
2022/09/09 05:28:30;;;;;;;0.50;0.50;;;14.90;76.00;;;;;;4964650;28;20042;-74
2022/09/09 05:30:58;;;;;;;1.20;0.70;;;14.80;76.10;;;;;;4949510;28;20043;-72
2022/09/09 05:33:25;;;;;;;1.70;0.60;;;14.80;76.20;;;;;;4969957;28;20084;-72
2022/09/09 05:36:01;;;;;;;2.03;0.63;;;14.80;76.40;;;;;;4962540;28;20125;-71
2022/09/09 05:38:27;;;;;;;0.75;0.50;;;14.80;76.70;;;;;;4969527;28;20034;-71
2022/09/09 05:40:53;;;;;;;0.45;0.45;;;14.80;76.30;;;;;;4954304;28;20392;-72
2022/09/09 05:43:22;;;;;;;2.08;0.70;;;14.80;76.30;;;;;;4973920;28;20037;-70
2022/09/09 05:45:48;;;;;;;3.30;0.80;;;14.80;76.40;;;;;;4956546;28;20053;-70
2022/09/09 05:48:18;;;;;;;1.63;1.13;;;14.90;76.40;;;;;;4970645;28;20046;-71
2022/09/09 05:50:52;;;;;;;1.07;0.40;;;14.90;76.50;;;;;;4972547;28;20320;-73
2022/09/09 05:53:18;;;;;;;3.03;0.68;;;15.00;76.60;;;;;;4948480;28;20110;-73
2022/09/09 05:55:45;;;;;;;0.80;0.60;;;15.00;76.30;;;;;;4983296;28;20193;-71
2022/09/09 05:58:11;;;;;;;3.05;0.73;;;15.00;76.20;;;;;;4953720;28;20036;-72
2022/09/09 06:00:37;;;;;;;1.85;0.90;;;15.00;76.20;;;;;;4969511;28;20034;-72
2022/09/09 06:03:03;;;;;;;3.50;1.88;;;15.10;76.30;;;;;;4988570;28;20089;-70
2022/09/09 06:05:30;;;;;;;3.28;1.60;;;15.10;76.30;;;;;;4932692;28;20587;-71
2022/09/09 06:07:55;;;;;;;2.08;1.13;;;15.20;76.40;;;;;;4973200;28;20050;-71
2022/09/09 06:10:21;;;;;;;6.70;1.52;;;15.20;76.30;;;;;;4955266;28;20042;-72
2022/09/09 06:12:46;;;;;;;3.33;0.95;;;15.20;76.40;;;;;;5002267;28;20030;-71
2022/09/09 06:15:12;;;;;;;5.30;1.20;;;15.20;76.30;;;;;;5000351;28;20507;-71
2022/09/09 06:17:38;;;;;;;3.67;1.23;;;15.30;76.40;;;;;;4978434;28;20034;-71
2022/09/09 06:20:04;;;;;;;3.95;0.70;;;15.30;76.50;;;;;;4999644;28;20050;-70
2022/09/09 06:22:30;;;;;;;1.70;0.77;;;15.30;76.70;;;;;;4970745;28;20084;-72
2022/09/09 06:24:55;;;;;;;2.95;0.77;;;15.30;76.70;;;;;;4984440;28;20798;-72
2022/09/09 06:27:24;;;;;;;4.47;0.70;;;15.40;76.90;;;;;;4961946;28;20057;-72
2022/09/09 06:29:50;;;;;;;4.35;0.70;;;15.50;76.90;;;;;;4997658;28;20040;-72
2022/09/09 06:32:15;;;;;;;2.22;0.60;;;15.50;77.00;;;;;;4965446;28;20033;-72
2022/09/09 06:34:41;;;;;;;2.05;0.68;;;15.60;76.90;;;;;;4989099;28;20117;-71
2022/09/09 06:37:08;;;;;;;1.98;0.57;;;15.60;76.80;;;;;;4934136;28;20038;-71
2022/09/09 06:39:33;;;;;;;1.08;0.35;;;15.70;76.80;;;;;;4956320;28;20045;-71
2022/09/09 06:41:59;;;;;;;2.20;0.82;;;15.80;76.80;;;;;;4970567;28;20037;-71
2022/09/09 06:44:26;;;;;;;4.40;0.80;;;15.80;76.70;;;;;;4960624;28;20077;-73
2022/09/09 06:46:52;;;;;;;1.45;1.05;;;15.80;76.50;;;;;;4979327;28;20061;-72
2022/09/09 06:49:18;;;;;;;1.00;0.50;;;15.90;76.40;;;;;;4954256;28;20065;-71
2022/09/09 06:51:43;;;;;;;3.05;0.52;;;16.00;76.40;;;;;;4983932;28;20053;-72
2022/09/09 06:54:09;;;;;;;2.10;0.47;;;16.00;76.40;;;;;;4952905;28;20049;-71
2022/09/09 06:56:36;;;;;;;0.90;0.52;;;16.10;76.20;;;;;;4965327;28;20041;-70
2022/09/09 06:59:03;;;;;;;1.42;0.73;;;16.30;76.20;;;;;;4965662;28;20514;-70
2022/09/09 07:01:30;;;;;;;2.42;0.47;;;16.40;76.80;;;;;;4970738;28;20042;-71
2022/09/09 07:03:58;;;;;;;2.33;0.40;;;16.50;75.80;;;;;;4954327;28;20058;-74
2022/09/09 07:06:25;;;;;;;3.83;0.60;;;16.60;75.60;;;;;;4972563;28;20053;-71
2022/09/09 07:08:55;;;;;;;4.18;0.82;;;16.80;75.50;;;;;;4931756;28;20510;-70
2022/09/09 07:11:22;;;;;;;0.85;0.40;;;16.90;75.20;;;;;;4960909;28;20043;-73
2022/09/09 07:13:48;;;;;;;2.15;0.50;;;17.10;74.90;;;;;;4941478;28;20038;-74
2022/09/09 07:16:17;;;;;;;2.03;0.43;;;17.20;74.60;;;;;;4968094;28;20042;-74
2022/09/09 07:18:43;;;;;;;2.53;0.60;;;17.40;74.40;;;;;;4986690;28;20096;-74
2022/09/09 07:21:09;;;;;;;2.05;0.40;;;17.60;74.20;;;;;;4967157;28;20034;-74
2022/09/09 07:23:35;;;;;;;1.48;0.50;;;17.70;73.80;;;;;;4973909;28;20034;-74
2022/09/09 07:26:01;;;;;;;2.85;0.60;;;17.80;73.30;;;;;;4964312;28;20580;-74
2022/09/09 07:28:28;;;;;;;4.10;0.60;;;17.80;72.90;;;;;;4984516;28;20422;-74
2022/09/09 07:31:03;;;;;;;2.72;0.40;;;17.90;72.70;;;;;;4961788;28;20053;-74
2022/09/09 07:33:33;;;;;;;0.60;0.20;;;17.90;72.40;;;;;;4959714;28;20046;-73
2022/09/09 07:36:14;;;;;;;2.90;0.45;;;18.00;72.40;;;;;;4954141;28;20621;-74
2022/09/09 07:38:45;;;;;;;1.75;0.55;;;18.10;72.20;;;;;;4968847;28;20075;-75
2022/09/09 07:41:12;;;;;;;0.38;0.38;;;18.30;72.00;;;;;;4973894;28;20464;-74
2022/09/09 07:43:41;;;;;;;3.60;0.50;;;18.40;71.70;;;;;;4941656;28;20034;-74
2022/09/09 07:46:07;;;;;;;1.08;0.40;;;18.60;71.40;;;;;;4977871;28;20120;-74
2022/09/09 07:48:33;;;;;;;1.63;0.60;;;18.70;71.00;;;;;;4967369;28;20078;-74
2022/09/09 07:51:06;;;;;;;1.95;0.90;;;18.80;70.70;;;;;;4982636;28;20140;-74
2022/09/09 07:53:31;;;;;;;2.47;0.43;;;18.90;70.30;;;;;;4979994;28;20065;-74
2022/09/09 07:56:03;;;;;;;2.25;0.50;;;19.00;70.30;;;;;;4963473;28;20050;-74
2022/09/09 07:58:29;;;;;;;3.03;1.13;;;19.10;70.00;;;;;;4941711;28;20632;-74
2022/09/09 08:00:54;;;;;;;3.50;1.35;;;19.20;69.90;;;;;;4977603;28;20046;-74
2022/09/09 08:03:21;;;;;;;4.47;0.70;;;19.20;69.50;;;;;;4978284;28;20042;-74
2022/09/09 08:05:47;;;;;;;4.70;0.90;;;19.30;69.30;;;;;;4965370;28;21802;-74
2022/09/09 08:08:12;;;;;;;1.30;0.40;;;19.40;69.10;;;;;;4962364;28;20971;-74
2022/09/09 08:10:38;;;;;;;4.97;0.40;;;19.40;68.90;;;;;;4979951;28;20693;-74
2022/09/09 08:13:04;;;;;;;4.88;0.77;;;19.50;68.80;;;;;;4983230;28;20156;-74
2022/09/09 08:15:30;;;;;;;3.47;0.50;;;19.50;68.60;;;;;;4963680;28;20057;-74
2022/09/09 08:17:56;;;;;;;2.47;0.77;;;19.60;68.40;;;;;;4976042;28;20034;-74
2022/09/09 08:20:23;;;;;;;3.60;0.40;;;19.60;68.30;;;;;;4966071;28;20038;-74
2022/09/09 08:22:49;;;;;;;1.98;0.52;;;19.80;68.20;;;;;;4977538;28;20034;-74
2022/09/09 08:25:15;;;;;;;2.40;0.40;;;19.90;67.90;;;;;;4984441;28;20050;-74
2022/09/09 08:27:43;;;;;;;0.75;0.30;;;20.10;67.70;;;;;;4983835;28;20056;-74
2022/09/09 08:30:10;;;;;;;3.72;0.40;;;20.40;67.30;;;;;;4976377;28;20038;-75
2022/09/09 08:32:35;;;;;;;1.30;0.30;;;20.60;66.80;;;;;;4967274;28;20046;-74
2022/09/09 08:35:01;;;;;;;2.42;0.55;;;20.80;66.40;;;;;;4965463;28;20125;-74
2022/09/09 08:37:29;;;;;;;4.35;0.93;;;21.00;66.00;;;;;;4966334;28;20169;-74
2022/09/09 08:39:56;;;;;;;1.65;0.25;;;21.10;65.50;;;;;;4980349;28;20038;-74
2022/09/09 08:42:41;;;;;;;4.95;0.70;;;21.40;65.20;;;;;;4949480;28;20053;-74
2022/09/09 08:45:15;;;;;;;2.47;0.60;;;21.60;64.70;;;;;;4962082;28;20050;-74
2022/09/09 08:48:16;;;;;;;2.85;0.50;;;21.80;64.30;;;;;;4984868;28;20033;-75
2022/09/09 08:50:42;;;;;;;3.00;0.70;;;22.10;63.00;;;;;;4983277;28;20513;-75
2022/09/09 08:53:22;;;;;;;2.53;0.50;;;22.20;63.00;;;;;;4966350;28;20499;-74
2022/09/09 08:55:49;;;;;;;3.97;0.52;;;22.40;62.10;;;;;;4955866;28;20042;-74
2022/09/09 08:58:29;;;;;;;1.98;0.50;;;22.50;62.30;;;;;;4972251;28;20038;-74
2022/09/09 09:01:03;;;;;;;1.98;0.60;;;22.70;61.80;;;;;;4975473;28;20043;-74
2022/09/09 09:03:50;;;;;;;3.58;0.50;;;22.80;61.50;;;;;;4971765;28;20526;-75
2022/09/09 09:06:36;;;;;;;2.15;0.65;;;23.00;60.50;;;;;;4970082;28;20049;-74
2022/09/09 09:09:25;;;;;;;1.75;0.60;;;23.30;60.10;;;;;;4990080;28;20638;-74
2022/09/09 09:11:55;;;;;;;3.42;0.52;;;23.50;59.50;;;;;;4929082;28;20058;-75
2022/09/09 09:14:25;;;;;;;4.13;0.90;;;23.70;59.50;;;;;;4992549;28;20046;-75
2022/09/09 09:17:03;;;;;;;2.30;0.60;;;24.00;59.20;;;;;;4988366;28;20034;-74
2022/09/09 09:19:29;;;;;;;3.50;0.60;;;24.20;58.50;;;;;;4942391;28;20046;-74
2022/09/09 09:22:14;;;;;;;6.30;0.93;;;24.30;58.30;;;;;;4991679;28;20042;-74
2022/09/09 09:24:55;;;;;;;5.10;0.80;;;24.50;57.50;;;;;;4971218;28;23342;-75
2022/09/09 09:27:40;;;;;;;1.73;0.50;;;24.80;57.20;;;;;;4978207;28;20039;-74
2022/09/09 09:30:15;;;;;;;3.50;0.70;;;25.10;57.20;;;;;;4978817;28;20092;-74
2022/09/09 09:32:44;;;;;;;4.32;0.60;;;25.30;56.50;;;;;;4977140;28;20125;-74
2022/09/09 09:35:11;;;;;;;4.88;0.90;;;25.60;56.10;;;;;;4963078;28;20065;-74
2022/09/09 09:37:37;;;;;;;1.42;0.57;;;25.80;55.70;;;;;;4981770;28;20146;-75
2022/09/09 09:40:10;;;;;;;2.95;0.85;;;25.90;55.20;;;;;;4979893;28;20861;-74
2022/09/09 09:42:35;;;;;;;5.50;0.68;;;26.00;54.20;;;;;;4979060;28;20093;-74
2022/09/09 09:45:12;;;;;;;4.07;0.50;;;26.00;54.40;;;;;;4966950;28;20049;-74
2022/09/09 09:47:41;;;;;;;2.78;0.60;;;26.20;53.90;;;;;;4971117;28;20034;-74
2022/09/09 09:50:16;;;;;;;1.88;0.55;;;26.30;54.00;;;;;;4969219;28;20044;-75
2022/09/09 09:52:42;;;;;;;2.85;0.70;;;26.50;53.60;;;;;;4981762;28;20046;-74
2022/09/09 09:55:13;;;;;;;5.90;0.90;;;26.70;53.30;;;;;;4964510;28;20495;-75
2022/09/09 09:57:38;;;;;;;3.70;0.50;;;26.90;52.60;;;;;;4976161;28;20141;-74
2022/09/09 10:00:20;;;;;;;5.50;0.75;;;27.10;52.60;;;;;;4982225;28;21013;-75
2022/09/09 10:02:46;;;;;;;5.00;0.65;;;27.20;51.40;;;;;;4966013;28;20033;-75
2022/09/09 10:05:14;;;;;;;2.65;0.75;;;27.30;51.50;;;;;;4984509;28;20027;-75
2022/09/09 10:07:40;;;;;;;1.88;0.55;;;27.20;51.40;;;;;;4986127;28;20045;-75
2022/09/09 10:10:08;;;;;;;3.53;0.70;;;27.20;51.40;;;;;;4947959;28;20041;-75
2022/09/09 10:12:36;;;;;;;5.30;0.63;;;27.30;51.20;;;;;;4970468;28;20169;-74
2022/09/09 10:15:05;;;;;;;2.05;0.68;;;27.50;50.90;;;;;;4967658;28;20038;-74
2022/09/09 10:18:11;;;;;;;3.33;0.73;;;27.50;50.40;;;;;;4967627;28;20058;-75
2022/09/09 10:21:06;;;;;;;1.98;0.68;;;27.40;49.30;;;;;;4970879;28;20451;-75
2022/09/09 10:23:37;;;;;;;2.50;0.50;;;27.10;49.90;;;;;;4956347;28;20034;-75
2022/09/09 10:26:07;;;;;;;4.47;0.82;;;26.70;50.10;;;;;;4962859;28;20116;-74
2022/09/09 10:28:58;;;;;;;2.85;0.55;;;26.50;50.00;;;;;;4956915;28;20708;-76
2022/09/09 10:32:02;;;;;;;2.45;0.60;;;26.20;49.70;;;;;;4984301;28;20047;-74
2022/09/09 10:34:36;;;;;;;3.55;0.75;;;26.10;49.80;;;;;;4949333;28;20042;-74
2022/09/09 10:37:02;;;;;;;2.35;0.50;;;26.00;50.10;;;;;;4978150;28;20034;-76
2022/09/09 10:39:40;;;;;;;5.57;0.70;;;25.80;50.50;;;;;;4972158;28;20033;-75
2022/09/09 10:42:16;;;;;;;1.10;0.30;;;25.60;50.40;;;;;;4958630;28;20506;-75
2022/09/09 10:44:42;;;;;;;3.13;0.50;;;25.40;50.60;;;;;;4970313;28;20046;-75
2022/09/09 10:47:25;;;;;;;0.93;0.35;;;25.30;51.00;;;;;;4985020;28;20641;-75
2022/09/09 10:50:13;;;;;;;2.03;0.50;;;25.20;51.00;;;;;;4957203;28;20030;-76
2022/09/09 10:52:52;;;;;;;1.00;0.73;;;25.10;50.90;;;;;;4996744;28;20034;-75
2022/09/09 10:55:25;;;;;;;3.83;0.65;;;25.00;51.20;;;;;;4968097;28;20121;-74
2022/09/09 10:57:52;;;;;;;3.83;0.57;;;25.00;51.20;;;;;;4984506;28;20038;-76
2022/09/09 11:00:23;;;;;;;3.17;0.35;;;25.00;51.20;;;;;;4967380;28;20034;-75
2022/09/09 11:02:56;;;;;;;1.83;0.30;;;25.00;51.20;;;;;;4983483;28;20030;-75
2022/09/09 11:05:28;;;;;;;1.95;0.30;;;25.10;51.30;;;;;;4985526;28;20026;-76
2022/09/09 11:07:58;;;;;;;4.20;0.80;;;25.30;51.30;;;;;;4953116;28;20038;-74
2022/09/09 11:10:56;;;;;;;2.70;0.40;;;25.50;51.20;;;;;;4982990;28;20050;-74
2022/09/09 11:13:40;;;;;;;1.63;0.55;;;25.70;50.90;;;;;;4987869;28;20685;-75
2022/09/09 11:16:31;;;;;;;0.93;0.30;;;25.90;50.70;;;;;;4973534;28;20034;-75
2022/09/09 11:19:02;;;;;;;;;;;26.00;50.40;;;;;;4980469;28;20153;-75
2022/09/09 11:21:33;;;;;;;1.65;0.40;;;26.20;50.60;;;;;;4966991;28;19914;-74
2022/09/09 11:24:02;;;;;;;0.63;0.20;;;26.30;50.50;;;;;;4986882;28;20038;-74
2022/09/09 11:26:40;;;;;;;2.47;0.32;;;26.50;50.20;;;;;;4973261;28;20026;-75
2022/09/09 11:29:29;;;;;;;1.20;0.30;;;26.70;49.80;;;;;;4969459;28;20026;-76
2022/09/09 11:32:25;;;;;;;2.65;0.38;;;26.80;49.50;;;;;;4981093;28;20038;-74
2022/09/09 11:34:53;;;;;;;1.88;0.20;;;27.00;48.80;;;;;;4987548;28;20034;-74
2022/09/09 11:37:40;;;;;;;2.80;0.52;;;27.20;49.00;;;;;;4989203;28;20737;-75
2022/09/09 11:40:16;;;;;;;0.95;0.30;;;27.40;48.00;;;;;;4975611;28;20118;-76
2022/09/09 11:42:42;;;;;;;2.83;0.63;;;27.60;47.90;;;;;;4950750;28;20034;-74
2022/09/09 11:45:10;;;;;;;1.35;0.45;;;27.60;47.70;;;;;;4945628;28;20043;-76
2022/09/09 11:47:39;;;;;;;3.63;0.60;;;27.60;47.50;;;;;;4942512;28;20031;-75
2022/09/09 11:50:14;;;;;;;1.42;0.38;;;27.50;47.20;;;;;;4960941;28;20275;-76
2022/09/09 11:52:48;;;;;;;3.97;0.43;;;27.30;47.20;;;;;;4963211;28;20074;-75
2022/09/09 11:55:28;;;;;;;1.75;0.50;;;27.30;47.30;;;;;;4960297;28;20050;-75
2022/09/09 11:58:18;;;;;;;1.73;0.47;;;27.10;47.00;;;;;;4948909;28;20061;-75
2022/09/09 12:00:47;;;;;;;1.08;0.43;;;27.00;47.20;;;;;;4968581;28;20446;-75
2022/09/09 12:03:52;;;;;;;2.17;0.40;;;26.90;47.60;;;;;;4965039;28;20035;-76
2022/09/09 12:06:31;;;;;;;1.85;0.68;;;26.80;48.10;;;;;;4909564;28;20056;-76
2022/09/09 12:09:04;;;;;;;1.65;0.32;;;26.70;48.70;;;;;;4920423;29;20032;-76
2022/09/09 12:11:33;;;;;;;3.65;0.65;;;26.70;49.00;;;;;;4907843;29;20083;-75
2022/09/09 12:14:00;;;;;;;1.00;0.45;;;26.90;49.10;;;;;;4906226;28;20110;-76
2022/09/09 12:16:34;;;;;;;1.02;0.40;;;27.20;49.20;;;;;;4901388;29;20048;-75
2022/09/09 12:19:09;;;;;;;3.15;0.60;;;27.40;48.90;;;;;;4878928;29;20040;-75
2022/09/09 12:21:44;;;;;;;1.65;0.55;;;27.50;48.80;;;;;;4902921;29;20083;-75
2022/09/09 12:24:10;;;;;;;1.77;0.50;;;27.70;48.70;;;;;;4908960;28;20071;-76
2022/09/09 12:27:01;;;;;;;1.80;0.40;;;27.70;48.50;;;;;;4891351;29;20040;-76
2022/09/09 12:29:42;;;;;;;1.70;0.40;;;27.80;48.30;;;;;;4897894;29;20064;-75
2022/09/09 12:32:18;;;;;;;1.15;0.35;;;28.00;48.20;;;;;;4927567;29;20088;-77
2022/09/09 12:34:48;;;;;;;2.38;0.40;;;28.10;48.00;;;;;;4901169;29;20051;-77
2022/09/09 12:37:37;;;;;;;0.98;0.40;;;28.20;47.40;;;;;;4947910;28;20046;-75
2022/09/09 12:40:18;;;;;;;3.15;0.30;;;28.30;47.30;;;;;;4964472;28;20744;-76
2022/09/09 12:42:44;;;;;;;1.70;0.30;;;28.40;46.70;;;;;;4960653;28;20078;-76
2022/09/09 12:45:38;;;;;;;2.75;0.60;;;28.50;46.60;;;;;;4964583;28;20082;-76
2022/09/09 12:48:08;;;;;;;3.22;0.40;;;28.60;45.40;;;;;;4951030;28;20176;-76
2022/09/09 12:50:45;;;;;;;0.75;0.40;;;28.70;45.80;;;;;;4953149;28;20467;-76
2022/09/09 12:53:15;;;;;;;2.05;0.50;;;28.80;45.60;;;;;;4953805;28;20488;-77
2022/09/09 12:55:55;;;;;;;1.45;0.35;;;28.90;45.50;;;;;;4955546;28;20047;-77
2022/09/09 12:58:20;;;;;;;0.73;0.30;;;29.10;45.30;;;;;;4955856;28;20858;-77
2022/09/09 13:00:53;;;;;;;1.73;0.40;;;29.20;44.80;;;;;;4974783;28;20500;-76
2022/09/09 13:03:20;;;;;;;1.60;0.32;;;29.30;44.10;;;;;;4955403;28;20066;-77
2022/09/09 13:05:53;;;;;;;1.02;0.30;;;29.30;43.80;;;;;;4936427;28;20098;-76
2022/09/09 13:08:20;;;;;;;1.17;0.30;;;29.30;43.20;;;;;;4939424;28;20122;-76
2022/09/09 13:10:58;;;;;;;1.35;0.28;;;29.10;43.10;;;;;;4965952;28;20829;-77